sensor_id;sensor_type;location;lat;lon;timestamp;P1;durP1;ratioP1;P2;durP2;ratioP2
50757;SDS011;36732;47.980;11.652;2022-07-21T00:01:22;3.55;;;2.60;;
50757;SDS011;36732;47.980;11.652;2022-07-21T00:03:49;4.18;;;2.70;;
50757;SDS011;36732;47.980;11.652;2022-07-21T00:06:14;2.97;;;2.78;;
50757;SDS011;36732;47.980;11.652;2022-07-21T00:08:40;3.85;;;2.92;;
50757;SDS011;36732;47.980;11.652;2022-07-21T00:11:06;4.07;;;3.30;;
50757;SDS011;36732;47.980;11.652;2022-07-21T00:13:32;3.15;;;2.53;;
50757;SDS011;36732;47.980;11.652;2022-07-21T00:15:58;4.15;;;2.90;;
50757;SDS011;36732;47.980;11.652;2022-07-21T00:18:24;3.10;;;2.80;;
50757;SDS011;36732;47.980;11.652;2022-07-21T00:20:53;4.05;;;2.97;;
50757;SDS011;36732;47.980;11.652;2022-07-21T00:23:22;14.77;;;2.85;;
50757;SDS011;36732;47.980;11.652;2022-07-21T00:25:49;3.47;;;3.15;;
50757;SDS011;36732;47.980;11.652;2022-07-21T00:28:16;3.50;;;3.17;;
50757;SDS011;36732;47.980;11.652;2022-07-21T00:30:43;6.82;;;3.38;;
50757;SDS011;36732;47.980;11.652;2022-07-21T00:33:10;3.42;;;2.83;;
50757;SDS011;36732;47.980;11.652;2022-07-21T00:35:36;3.33;;;3.03;;
50757;SDS011;36732;47.980;11.652;2022-07-21T00:38:02;4.43;;;3.10;;
50757;SDS011;36732;47.980;11.652;2022-07-21T00:40:28;3.47;;;3.17;;
50757;SDS011;36732;47.980;11.652;2022-07-21T00:42:54;3.65;;;3.15;;
50757;SDS011;36732;47.980;11.652;2022-07-21T00:45:20;8.98;;;3.33;;
50757;SDS011;36732;47.980;11.652;2022-07-21T00:47:46;5.22;;;3.30;;
50757;SDS011;36732;47.980;11.652;2022-07-21T00:50:13;3.15;;;2.85;;
50757;SDS011;36732;47.980;11.652;2022-07-21T00:52:44;4.22;;;3.00;;
50757;SDS011;36732;47.980;11.652;2022-07-21T00:55:12;6.35;;;3.10;;
50757;SDS011;36732;47.980;11.652;2022-07-21T00:57:42;4.13;;;3.08;;
50757;SDS011;36732;47.980;11.652;2022-07-21T01:00:10;4.43;;;3.90;;
50757;SDS011;36732;47.980;11.652;2022-07-21T01:02:46;3.17;;;2.88;;
50757;SDS011;36732;47.980;11.652;2022-07-21T01:05:13;3.83;;;3.30;;
50757;SDS011;36732;47.980;11.652;2022-07-21T01:07:43;7.07;;;3.20;;
50757;SDS011;36732;47.980;11.652;2022-07-21T01:10:21;4.20;;;3.05;;
50757;SDS011;36732;47.980;11.652;2022-07-21T01:12:48;3.70;;;3.30;;
50757;SDS011;36732;47.980;11.652;2022-07-21T01:15:16;3.38;;;3.08;;
50757;SDS011;36732;47.980;11.652;2022-07-21T01:17:44;4.25;;;2.97;;
50757;SDS011;36732;47.980;11.652;2022-07-21T01:20:12;4.32;;;3.08;;
50757;SDS011;36732;47.980;11.652;2022-07-21T01:22:42;3.05;;;2.70;;
50757;SDS011;36732;47.980;11.652;2022-07-21T01:25:10;3.90;;;3.30;;
50757;SDS011;36732;47.980;11.652;2022-07-21T01:27:37;3.55;;;3.25;;
50757;SDS011;36732;47.980;11.652;2022-07-21T01:30:04;5.43;;;3.30;;
50757;SDS011;36732;47.980;11.652;2022-07-21T01:32:35;7.68;;;3.25;;
50757;SDS011;36732;47.980;11.652;2022-07-21T01:35:04;3.58;;;3.28;;
50757;SDS011;36732;47.980;11.652;2022-07-21T01:37:36;3.63;;;3.28;;
50757;SDS011;36732;47.980;11.652;2022-07-21T01:40:06;3.78;;;3.38;;
50757;SDS011;36732;47.980;11.652;2022-07-21T01:42:51;3.72;;;3.13;;
50757;SDS011;36732;47.980;11.652;2022-07-21T01:45:18;3.30;;;2.80;;
50757;SDS011;36732;47.980;11.652;2022-07-21T01:47:43;3.60;;;3.30;;
50757;SDS011;36732;47.980;11.652;2022-07-21T01:50:09;4.47;;;2.88;;
50757;SDS011;36732;47.980;11.652;2022-07-21T01:52:36;3.35;;;3.05;;
50757;SDS011;36732;47.980;11.652;2022-07-21T01:55:02;3.50;;;3.20;;
50757;SDS011;36732;47.980;11.652;2022-07-21T01:57:28;3.80;;;3.38;;
50757;SDS011;36732;47.980;11.652;2022-07-21T01:59:54;4.70;;;3.28;;
50757;SDS011;36732;47.980;11.652;2022-07-21T02:02:20;4.50;;;3.50;;
50757;SDS011;36732;47.980;11.652;2022-07-21T02:04:47;3.80;;;3.50;;
50757;SDS011;36732;47.980;11.652;2022-07-21T02:07:14;3.83;;;3.53;;
50757;SDS011;36732;47.980;11.652;2022-07-21T02:09:40;4.10;;;3.50;;
50757;SDS011;36732;47.980;11.652;2022-07-21T02:12:05;3.95;;;3.28;;
50757;SDS011;36732;47.980;11.652;2022-07-21T02:14:31;4.32;;;3.45;;
50757;SDS011;36732;47.980;11.652;2022-07-21T02:16:57;4.63;;;3.42;;
50757;SDS011;36732;47.980;11.652;2022-07-21T02:19:23;5.40;;;3.25;;
50757;SDS011;36732;47.980;11.652;2022-07-21T02:21:48;4.03;;;3.60;;
50757;SDS011;36732;47.980;11.652;2022-07-21T02:24:14;3.72;;;3.30;;
50757;SDS011;36732;47.980;11.652;2022-07-21T02:26:40;5.40;;;3.65;;
50757;SDS011;36732;47.980;11.652;2022-07-21T02:29:06;4.45;;;4.05;;
50757;SDS011;36732;47.980;11.652;2022-07-21T02:31:32;4.15;;;3.72;;
50757;SDS011;36732;47.980;11.652;2022-07-21T02:33:58;4.15;;;3.08;;
50757;SDS011;36732;47.980;11.652;2022-07-21T02:36:23;4.82;;;3.70;;
50757;SDS011;36732;47.980;11.652;2022-07-21T02:38:49;3.65;;;3.17;;
50757;SDS011;36732;47.980;11.652;2022-07-21T02:41:15;3.95;;;3.55;;
50757;SDS011;36732;47.980;11.652;2022-07-21T02:43:41;5.50;;;3.55;;
50757;SDS011;36732;47.980;11.652;2022-07-21T02:46:07;4.22;;;3.55;;
50757;SDS011;36732;47.980;11.652;2022-07-21T02:48:33;4.90;;;3.33;;
50757;SDS011;36732;47.980;11.652;2022-07-21T02:50:59;4.30;;;3.35;;
50757;SDS011;36732;47.980;11.652;2022-07-21T02:53:24;3.88;;;3.50;;
50757;SDS011;36732;47.980;11.652;2022-07-21T02:55:51;5.00;;;3.92;;
50757;SDS011;36732;47.980;11.652;2022-07-21T02:58:19;3.63;;;3.33;;
50757;SDS011;36732;47.980;11.652;2022-07-21T03:00:49;3.92;;;3.63;;
50757;SDS011;36732;47.980;11.652;2022-07-21T03:03:20;5.57;;;4.13;;
50757;SDS011;36732;47.980;11.652;2022-07-21T03:05:47;5.43;;;3.58;;
50757;SDS011;36732;47.980;11.652;2022-07-21T03:08:14;5.65;;;3.65;;
50757;SDS011;36732;47.980;11.652;2022-07-21T03:10:41;3.58;;;3.28;;
50757;SDS011;36732;47.980;11.652;2022-07-21T03:13:07;5.25;;;4.18;;
50757;SDS011;36732;47.980;11.652;2022-07-21T03:15:34;4.50;;;4.10;;
50757;SDS011;36732;47.980;11.652;2022-07-21T03:18:00;4.25;;;3.85;;
50757;SDS011;36732;47.980;11.652;2022-07-21T03:20:27;4.20;;;3.80;;
50757;SDS011;36732;47.980;11.652;2022-07-21T03:22:56;3.90;;;3.60;;
50757;SDS011;36732;47.980;11.652;2022-07-21T03:25:22;4.07;;;3.78;;
50757;SDS011;36732;47.980;11.652;2022-07-21T03:27:48;4.47;;;4.07;;
50757;SDS011;36732;47.980;11.652;2022-07-21T03:30:14;4.95;;;4.45;;
50757;SDS011;36732;47.980;11.652;2022-07-21T03:32:41;4.53;;;4.10;;
50757;SDS011;36732;47.980;11.652;2022-07-21T03:35:08;5.03;;;4.00;;
50757;SDS011;36732;47.980;11.652;2022-07-21T03:37:39;5.43;;;3.97;;
50757;SDS011;36732;47.980;11.652;2022-07-21T03:40:15;6.65;;;4.65;;
50757;SDS011;36732;47.980;11.652;2022-07-21T03:42:44;6.07;;;4.22;;
50757;SDS011;36732;47.980;11.652;2022-07-21T03:45:10;5.05;;;4.32;;
50757;SDS011;36732;47.980;11.652;2022-07-21T03:47:36;5.63;;;4.28;;
50757;SDS011;36732;47.980;11.652;2022-07-21T03:50:03;5.60;;;4.25;;
50757;SDS011;36732;47.980;11.652;2022-07-21T03:52:31;5.97;;;4.07;;
50757;SDS011;36732;47.980;11.652;2022-07-21T03:54:56;6.45;;;4.68;;
50757;SDS011;36732;47.980;11.652;2022-07-21T03:57:35;5.90;;;4.75;;
50757;SDS011;36732;47.980;11.652;2022-07-21T04:00:07;5.50;;;4.22;;
50757;SDS011;36732;47.980;11.652;2022-07-21T04:02:40;6.57;;;4.80;;
50757;SDS011;36732;47.980;11.652;2022-07-21T04:05:09;6.50;;;4.88;;
50757;SDS011;36732;47.980;11.652;2022-07-21T04:07:36;5.50;;;5.00;;
50757;SDS011;36732;47.980;11.652;2022-07-21T04:10:05;5.35;;;4.85;;
50757;SDS011;36732;47.980;11.652;2022-07-21T04:12:32;5.03;;;4.63;;
50757;SDS011;36732;47.980;11.652;2022-07-21T04:14:57;6.97;;;4.78;;
50757;SDS011;36732;47.980;11.652;2022-07-21T04:17:23;6.00;;;5.22;;
50757;SDS011;36732;47.980;11.652;2022-07-21T04:19:49;5.07;;;4.47;;
50757;SDS011;36732;47.980;11.652;2022-07-21T04:22:15;5.68;;;5.18;;
50757;SDS011;36732;47.980;11.652;2022-07-21T04:24:41;5.30;;;4.80;;
50757;SDS011;36732;47.980;11.652;2022-07-21T04:27:06;5.18;;;4.65;;
50757;SDS011;36732;47.980;11.652;2022-07-21T04:29:32;6.10;;;4.78;;
50757;SDS011;36732;47.980;11.652;2022-07-21T04:31:58;6.10;;;5.45;;
50757;SDS011;36732;47.980;11.652;2022-07-21T04:34:24;6.15;;;5.15;;
50757;SDS011;36732;47.980;11.652;2022-07-21T04:36:50;5.78;;;5.28;;
50757;SDS011;36732;47.980;11.652;2022-07-21T04:39:15;7.05;;;5.10;;
50757;SDS011;36732;47.980;11.652;2022-07-21T04:41:41;5.38;;;4.88;;
50757;SDS011;36732;47.980;11.652;2022-07-21T04:44:07;5.70;;;5.10;;
50757;SDS011;36732;47.980;11.652;2022-07-21T04:46:33;6.03;;;5.18;;
50757;SDS011;36732;47.980;11.652;2022-07-21T04:48:58;6.45;;;5.85;;
50757;SDS011;36732;47.980;11.652;2022-07-21T04:51:24;5.78;;;4.95;;
50757;SDS011;36732;47.980;11.652;2022-07-21T04:53:50;9.35;;;6.05;;
50757;SDS011;36732;47.980;11.652;2022-07-21T04:56:15;9.10;;;5.47;;
50757;SDS011;36732;47.980;11.652;2022-07-21T04:58:41;7.45;;;5.95;;
50757;SDS011;36732;47.980;11.652;2022-07-21T05:01:07;10.20;;;5.45;;
50757;SDS011;36732;47.980;11.652;2022-07-21T05:03:32;6.78;;;5.93;;
50757;SDS011;36732;47.980;11.652;2022-07-21T05:05:58;5.70;;;5.05;;
50757;SDS011;36732;47.980;11.652;2022-07-21T05:08:24;8.88;;;5.68;;
50757;SDS011;36732;47.980;11.652;2022-07-21T05:10:51;7.40;;;6.25;;
50757;SDS011;36732;47.980;11.652;2022-07-21T05:13:17;5.97;;;5.47;;
50757;SDS011;36732;47.980;11.652;2022-07-21T05:15:43;6.97;;;6.22;;
50757;SDS011;36732;47.980;11.652;2022-07-21T05:18:08;6.28;;;5.63;;
50757;SDS011;36732;47.980;11.652;2022-07-21T05:20:34;6.47;;;5.28;;
50757;SDS011;36732;47.980;11.652;2022-07-21T05:23:00;7.22;;;5.72;;
50757;SDS011;36732;47.980;11.652;2022-07-21T05:25:27;7.82;;;5.75;;
50757;SDS011;36732;47.980;11.652;2022-07-21T05:27:53;9.45;;;6.10;;
50757;SDS011;36732;47.980;11.652;2022-07-21T05:30:19;7.88;;;5.72;;
50757;SDS011;36732;47.980;11.652;2022-07-21T05:32:45;6.35;;;5.75;;
50757;SDS011;36732;47.980;11.652;2022-07-21T05:35:11;9.98;;;5.88;;
50757;SDS011;36732;47.980;11.652;2022-07-21T05:37:40;6.38;;;5.60;;
50757;SDS011;36732;47.980;11.652;2022-07-21T05:40:06;6.75;;;6.15;;
50757;SDS011;36732;47.980;11.652;2022-07-21T05:42:35;6.55;;;5.93;;
50757;SDS011;36732;47.980;11.652;2022-07-21T05:45:01;6.88;;;6.18;;
50757;SDS011;36732;47.980;11.652;2022-07-21T05:47:29;7.55;;;6.03;;
50757;SDS011;36732;47.980;11.652;2022-07-21T05:49:56;6.72;;;5.97;;
50757;SDS011;36732;47.980;11.652;2022-07-21T05:52:22;7.30;;;6.55;;
50757;SDS011;36732;47.980;11.652;2022-07-21T05:54:48;6.82;;;6.07;;
50757;SDS011;36732;47.980;11.652;2022-07-21T05:57:14;6.93;;;6.05;;
50757;SDS011;36732;47.980;11.652;2022-07-21T05:59:39;6.97;;;6.15;;
50757;SDS011;36732;47.980;11.652;2022-07-21T06:02:05;7.50;;;6.65;;
50757;SDS011;36732;47.980;11.652;2022-07-21T06:04:32;10.82;;;6.60;;
50757;SDS011;36732;47.980;11.652;2022-07-21T06:06:57;7.35;;;6.50;;
50757;SDS011;36732;47.980;11.652;2022-07-21T06:09:23;7.32;;;6.22;;
50757;SDS011;36732;47.980;11.652;2022-07-21T06:11:49;7.43;;;6.43;;
50757;SDS011;36732;47.980;11.652;2022-07-21T06:14:14;7.13;;;6.43;;
50757;SDS011;36732;47.980;11.652;2022-07-21T06:16:40;7.50;;;6.45;;
50757;SDS011;36732;47.980;11.652;2022-07-21T06:19:06;6.70;;;6.10;;
50757;SDS011;36732;47.980;11.652;2022-07-21T06:21:32;7.35;;;6.65;;
50757;SDS011;36732;47.980;11.652;2022-07-21T06:23:58;8.18;;;6.82;;
50757;SDS011;36732;47.980;11.652;2022-07-21T06:26:25;7.05;;;6.45;;
50757;SDS011;36732;47.980;11.652;2022-07-21T06:28:51;7.32;;;6.63;;
50757;SDS011;36732;47.980;11.652;2022-07-21T06:31:16;8.27;;;6.70;;
50757;SDS011;36732;47.980;11.652;2022-07-21T06:33:42;8.05;;;7.25;;
50757;SDS011;36732;47.980;11.652;2022-07-21T06:36:08;10.45;;;7.25;;
50757;SDS011;36732;47.980;11.652;2022-07-21T06:38:34;7.43;;;6.72;;
50757;SDS011;36732;47.980;11.652;2022-07-21T06:41:00;8.32;;;7.05;;
50757;SDS011;36732;47.980;11.652;2022-07-21T06:43:26;8.65;;;7.47;;
50757;SDS011;36732;47.980;11.652;2022-07-21T06:45:52;7.80;;;6.28;;
50757;SDS011;36732;47.980;11.652;2022-07-21T06:48:18;7.03;;;6.35;;
50757;SDS011;36732;47.980;11.652;2022-07-21T06:50:46;8.27;;;7.45;;
50757;SDS011;36732;47.980;11.652;2022-07-21T06:53:12;7.78;;;7.07;;
50757;SDS011;36732;47.980;11.652;2022-07-21T06:55:38;8.05;;;7.28;;
50757;SDS011;36732;47.980;11.652;2022-07-21T06:58:14;7.88;;;7.07;;
50757;SDS011;36732;47.980;11.652;2022-07-21T07:00:42;8.98;;;6.80;;
50757;SDS011;36732;47.980;11.652;2022-07-21T07:03:09;8.25;;;7.25;;
50757;SDS011;36732;47.980;11.652;2022-07-21T07:05:36;9.05;;;7.40;;
50757;SDS011;36732;47.980;11.652;2022-07-21T07:08:02;7.70;;;6.85;;
50757;SDS011;36732;47.980;11.652;2022-07-21T07:10:29;8.35;;;7.13;;
50757;SDS011;36732;47.980;11.652;2022-07-21T07:12:55;9.05;;;6.85;;
50757;SDS011;36732;47.980;11.652;2022-07-21T07:15:22;8.32;;;7.47;;
50757;SDS011;36732;47.980;11.652;2022-07-21T07:17:49;8.52;;;7.25;;
50757;SDS011;36732;47.980;11.652;2022-07-21T07:20:15;7.90;;;7.20;;
50757;SDS011;36732;47.980;11.652;2022-07-21T07:22:41;9.10;;;7.38;;
50757;SDS011;36732;47.980;11.652;2022-07-21T07:25:07;8.95;;;8.10;;
50757;SDS011;36732;47.980;11.652;2022-07-21T07:27:33;7.38;;;6.57;;
50757;SDS011;36732;47.980;11.652;2022-07-21T07:30:00;9.10;;;8.20;;
50757;SDS011;36732;47.980;11.652;2022-07-21T07:32:26;10.57;;;7.80;;
50757;SDS011;36732;47.980;11.652;2022-07-21T07:34:52;8.45;;;7.20;;
50757;SDS011;36732;47.980;11.652;2022-07-21T07:37:17;8.35;;;7.40;;
50757;SDS011;36732;47.980;11.652;2022-07-21T07:39:43;9.85;;;7.82;;
50757;SDS011;36732;47.980;11.652;2022-07-21T07:42:09;9.73;;;7.82;;
50757;SDS011;36732;47.980;11.652;2022-07-21T07:44:35;8.57;;;7.72;;
50757;SDS011;36732;47.980;11.652;2022-07-21T07:47:00;8.60;;;7.80;;
50757;SDS011;36732;47.980;11.652;2022-07-21T07:49:30;8.43;;;7.57;;
50757;SDS011;36732;47.980;11.652;2022-07-21T07:51:56;8.63;;;7.72;;
50757;SDS011;36732;47.980;11.652;2022-07-21T07:54:23;8.48;;;7.70;;
50757;SDS011;36732;47.980;11.652;2022-07-21T07:56:49;11.27;;;8.73;;
50757;SDS011;36732;47.980;11.652;2022-07-21T07:59:15;9.43;;;8.52;;
50757;SDS011;36732;47.980;11.652;2022-07-21T08:01:41;9.88;;;7.60;;
50757;SDS011;36732;47.980;11.652;2022-07-21T08:04:07;8.57;;;7.72;;
50757;SDS011;36732;47.980;11.652;2022-07-21T08:06:32;9.18;;;8.27;;
50757;SDS011;36732;47.980;11.652;2022-07-21T08:08:58;9.95;;;8.38;;
50757;SDS011;36732;47.980;11.652;2022-07-21T08:11:25;8.48;;;7.68;;
50757;SDS011;36732;47.980;11.652;2022-07-21T08:13:51;8.65;;;7.63;;
50757;SDS011;36732;47.980;11.652;2022-07-21T08:16:17;7.80;;;7.10;;
50757;SDS011;36732;47.980;11.652;2022-07-21T08:18:43;9.85;;;7.53;;
50757;SDS011;36732;47.980;11.652;2022-07-21T08:21:09;8.43;;;6.95;;
50757;SDS011;36732;47.980;11.652;2022-07-21T08:23:35;8.02;;;7.20;;
50757;SDS011;36732;47.980;11.652;2022-07-21T08:26:02;7.97;;;7.15;;
50757;SDS011;36732;47.980;11.652;2022-07-21T08:28:29;8.43;;;7.57;;
50757;SDS011;36732;47.980;11.652;2022-07-21T08:30:55;10.50;;;7.25;;
50757;SDS011;36732;47.980;11.652;2022-07-21T08:33:21;8.60;;;7.68;;
50757;SDS011;36732;47.980;11.652;2022-07-21T08:35:47;8.10;;;7.30;;
50757;SDS011;36732;47.980;11.652;2022-07-21T08:38:13;9.10;;;7.43;;
50757;SDS011;36732;47.980;11.652;2022-07-21T08:40:42;8.43;;;7.40;;
50757;SDS011;36732;47.980;11.652;2022-07-21T08:43:11;7.93;;;7.22;;
50757;SDS011;36732;47.980;11.652;2022-07-21T08:45:39;10.23;;;7.82;;
50757;SDS011;36732;47.980;11.652;2022-07-21T08:48:06;7.72;;;6.70;;
50757;SDS011;36732;47.980;11.652;2022-07-21T08:50:38;8.05;;;7.28;;
50757;SDS011;36732;47.980;11.652;2022-07-21T08:53:05;8.30;;;6.80;;
50757;SDS011;36732;47.980;11.652;2022-07-21T08:55:32;9.63;;;7.15;;
50757;SDS011;36732;47.980;11.652;2022-07-21T08:58:01;10.95;;;7.70;;
50757;SDS011;36732;47.980;11.652;2022-07-21T09:00:28;11.52;;;8.20;;
50757;SDS011;36732;47.980;11.652;2022-07-21T09:03:10;8.07;;;6.72;;
50757;SDS011;36732;47.980;11.652;2022-07-21T09:05:40;8.30;;;7.13;;
50757;SDS011;36732;47.980;11.652;2022-07-21T09:08:39;7.78;;;6.97;;
50757;SDS011;36732;47.980;11.652;2022-07-21T09:13:48;8.93;;;7.10;;
50757;SDS011;36732;47.980;11.652;2022-07-21T09:16:46;9.45;;;7.03;;
50757;SDS011;36732;47.980;11.652;2022-07-21T09:19:25;8.02;;;6.80;;
50757;SDS011;36732;47.980;11.652;2022-07-21T09:21:55;8.18;;;7.40;;
50757;SDS011;36732;47.980;11.652;2022-07-21T09:24:27;8.57;;;7.63;;
50757;SDS011;36732;47.980;11.652;2022-07-21T09:29:48;8.70;;;7.57;;
50757;SDS011;36732;47.980;11.652;2022-07-21T09:32:35;8.93;;;8.02;;
50757;SDS011;36732;47.980;11.652;2022-07-21T09:35:04;11.20;;;8.20;;
50757;SDS011;36732;47.980;11.652;2022-07-21T09:37:35;11.75;;;7.68;;
50757;SDS011;36732;47.980;11.652;2022-07-21T09:40:04;9.00;;;8.10;;
50757;SDS011;36732;47.980;11.652;2022-07-21T09:42:34;10.00;;;8.70;;
50757;SDS011;36732;47.980;11.652;2022-07-21T09:45:09;9.13;;;7.60;;
50757;SDS011;36732;47.980;11.652;2022-07-21T09:47:38;9.75;;;8.85;;
50757;SDS011;36732;47.980;11.652;2022-07-21T09:50:07;8.25;;;7.45;;
50757;SDS011;36732;47.980;11.652;2022-07-21T09:52:36;8.60;;;7.70;;
50757;SDS011;36732;47.980;11.652;2022-07-21T09:55:08;10.75;;;7.97;;
50757;SDS011;36732;47.980;11.652;2022-07-21T09:57:36;9.57;;;7.90;;
50757;SDS011;36732;47.980;11.652;2022-07-21T10:00:03;9.07;;;7.78;;
50757;SDS011;36732;47.980;11.652;2022-07-21T10:02:33;8.95;;;7.47;;
50757;SDS011;36732;47.980;11.652;2022-07-21T10:05:19;8.82;;;8.02;;
50757;SDS011;36732;47.980;11.652;2022-07-21T10:07:47;8.77;;;6.88;;
50757;SDS011;36732;47.980;11.652;2022-07-21T10:10:14;8.25;;;6.97;;
50757;SDS011;36732;47.980;11.652;2022-07-21T10:12:42;8.32;;;7.53;;
50757;SDS011;36732;47.980;11.652;2022-07-21T10:15:08;8.93;;;7.80;;
50757;SDS011;36732;47.980;11.652;2022-07-21T10:17:34;10.15;;;7.65;;
50757;SDS011;36732;47.980;11.652;2022-07-21T10:20:05;7.88;;;7.07;;
50757;SDS011;36732;47.980;11.652;2022-07-21T10:25:32;8.38;;;7.25;;
50757;SDS011;36732;47.980;11.652;2022-07-21T10:30:49;15.60;;;6.78;;
50757;SDS011;36732;47.980;11.652;2022-07-21T10:33:21;7.00;;;6.30;;
50757;SDS011;36732;47.980;11.652;2022-07-21T10:36:10;6.82;;;5.95;;
50757;SDS011;36732;47.980;11.652;2022-07-21T10:44:58;7.03;;;6.32;;
50757;SDS011;36732;47.980;11.652;2022-07-21T10:47:07;8.73;;;7.43;;
50757;SDS011;36732;47.980;11.652;2022-07-21T10:57:45;7.05;;;6.35;;
50757;SDS011;36732;47.980;11.652;2022-07-21T11:02:59;7.28;;;6.57;;
50757;SDS011;36732;47.980;11.652;2022-07-21T11:05:28;8.10;;;7.30;;
50757;SDS011;36732;47.980;11.652;2022-07-21T11:08:12;9.18;;;7.03;;
50757;SDS011;36732;47.980;11.652;2022-07-21T11:10:47;7.68;;;6.95;;
50757;SDS011;36732;47.980;11.652;2022-07-21T11:13:16;8.05;;;7.25;;
50757;SDS011;36732;47.980;11.652;2022-07-21T11:18:19;8.32;;;7.47;;
50757;SDS011;36732;47.980;11.652;2022-07-21T11:23:46;10.50;;;8.10;;
50757;SDS011;36732;47.980;11.652;2022-07-21T11:26:14;10.32;;;8.13;;
50757;SDS011;36732;47.980;11.652;2022-07-21T11:28:43;9.52;;;7.53;;
50757;SDS011;36732;47.980;11.652;2022-07-21T11:31:18;8.30;;;7.00;;
50757;SDS011;36732;47.980;11.652;2022-07-21T11:33:46;9.05;;;7.95;;
50757;SDS011;36732;47.980;11.652;2022-07-21T11:36:30;8.82;;;7.72;;
50757;SDS011;36732;47.980;11.652;2022-07-21T11:39:01;7.82;;;7.03;;
50757;SDS011;36732;47.980;11.652;2022-07-21T11:41:39;8.10;;;7.30;;
50757;SDS011;36732;47.980;11.652;2022-07-21T11:44:07;8.10;;;7.30;;
50757;SDS011;36732;47.980;11.652;2022-07-21T11:49:20;8.15;;;7.30;;
50757;SDS011;36732;47.980;11.652;2022-07-21T11:51:55;8.23;;;7.43;;
50757;SDS011;36732;47.980;11.652;2022-07-21T11:54:31;10.32;;;6.70;;
50757;SDS011;36732;47.980;11.652;2022-07-21T11:57:12;8.30;;;7.50;;
50757;SDS011;36732;47.980;11.652;2022-07-21T11:59:40;8.07;;;7.28;;
50757;SDS011;36732;47.980;11.652;2022-07-21T12:02:07;10.10;;;8.00;;
50757;SDS011;36732;47.980;11.652;2022-07-21T12:07:35;11.10;;;7.53;;
50757;SDS011;36732;47.980;11.652;2022-07-21T12:12:51;8.35;;;7.55;;
50757;SDS011;36732;47.980;11.652;2022-07-21T12:15:29;9.07;;;8.15;;
50757;SDS011;36732;47.980;11.652;2022-07-21T12:18:01;8.88;;;7.90;;
50757;SDS011;36732;47.980;11.652;2022-07-21T12:20:36;7.93;;;7.00;;
50757;SDS011;36732;47.980;11.652;2022-07-21T12:23:19;8.88;;;7.70;;
50757;SDS011;36732;47.980;11.652;2022-07-21T12:25:47;9.67;;;7.47;;
50757;SDS011;36732;47.980;11.652;2022-07-21T12:28:13;7.63;;;6.90;;
50757;SDS011;36732;47.980;11.652;2022-07-21T12:30:40;8.48;;;7.68;;
50757;SDS011;36732;47.980;11.652;2022-07-21T12:33:12;7.88;;;7.15;;
50757;SDS011;36732;47.980;11.652;2022-07-21T12:35:42;9.13;;;8.23;;
50757;SDS011;36732;47.980;11.652;2022-07-21T12:38:14;9.35;;;8.07;;
50757;SDS011;36732;47.980;11.652;2022-07-21T12:40:45;8.10;;;7.28;;
50757;SDS011;36732;47.980;11.652;2022-07-21T12:43:18;8.93;;;8.02;;
50757;SDS011;36732;47.980;11.652;2022-07-21T12:45:49;7.78;;;7.07;;
50757;SDS011;36732;47.980;11.652;2022-07-21T12:53:29;8.48;;;7.57;;
50757;SDS011;36732;47.980;11.652;2022-07-21T12:55:56;8.15;;;7.35;;
50757;SDS011;36732;47.980;11.652;2022-07-21T12:58:22;8.60;;;7.70;;
50757;SDS011;36732;47.980;11.652;2022-07-21T13:00:48;8.18;;;7.32;;
50757;SDS011;36732;47.980;11.652;2022-07-21T13:03:14;9.73;;;7.53;;
50757;SDS011;36732;47.980;11.652;2022-07-21T13:05:40;9.82;;;7.32;;
50757;SDS011;36732;47.980;11.652;2022-07-21T13:08:06;9.57;;;7.75;;
50757;SDS011;36732;47.980;11.652;2022-07-21T13:10:31;9.18;;;7.60;;
50757;SDS011;36732;47.980;11.652;2022-07-21T13:12:57;8.32;;;7.40;;
50757;SDS011;36732;47.980;11.652;2022-07-21T13:15:23;8.70;;;7.93;;
50757;SDS011;36732;47.980;11.652;2022-07-21T13:17:49;8.52;;;7.70;;
50757;SDS011;36732;47.980;11.652;2022-07-21T13:20:15;8.40;;;7.55;;
50757;SDS011;36732;47.980;11.652;2022-07-21T13:22:41;8.75;;;7.85;;
50757;SDS011;36732;47.980;11.652;2022-07-21T13:25:07;8.02;;;7.07;;
50757;SDS011;36732;47.980;11.652;2022-07-21T13:27:35;9.55;;;8.45;;
50757;SDS011;36732;47.980;11.652;2022-07-21T13:30:05;8.60;;;7.80;;
50757;SDS011;36732;47.980;11.652;2022-07-21T13:32:35;8.57;;;7.72;;
50757;SDS011;36732;47.980;11.652;2022-07-21T13:35:02;9.27;;;8.32;;
50757;SDS011;36732;47.980;11.652;2022-07-21T13:37:29;8.90;;;8.10;;
50757;SDS011;36732;47.980;11.652;2022-07-21T13:39:55;9.73;;;8.27;;
50757;SDS011;36732;47.980;11.652;2022-07-21T13:42:21;9.63;;;7.57;;
50757;SDS011;36732;47.980;11.652;2022-07-21T13:44:47;9.15;;;8.25;;
50757;SDS011;36732;47.980;11.652;2022-07-21T13:47:13;8.48;;;7.68;;
50757;SDS011;36732;47.980;11.652;2022-07-21T13:49:38;9.93;;;8.85;;
50757;SDS011;36732;47.980;11.652;2022-07-21T13:52:05;8.75;;;7.85;;
50757;SDS011;36732;47.980;11.652;2022-07-21T13:54:30;10.45;;;7.57;;
50757;SDS011;36732;47.980;11.652;2022-07-21T13:56:56;8.90;;;8.00;;
50757;SDS011;36732;47.980;11.652;2022-07-21T13:59:24;10.38;;;8.80;;
50757;SDS011;36732;47.980;11.652;2022-07-21T14:01:49;8.63;;;7.82;;
50757;SDS011;36732;47.980;11.652;2022-07-21T14:04:15;9.68;;;8.45;;
50757;SDS011;36732;47.980;11.652;2022-07-21T14:06:41;8.82;;;7.57;;
50757;SDS011;36732;47.980;11.652;2022-07-21T14:09:11;11.13;;;7.90;;
50757;SDS011;36732;47.980;11.652;2022-07-21T14:11:37;9.13;;;8.00;;
50757;SDS011;36732;47.980;11.652;2022-07-21T14:14:04;8.25;;;7.32;;
50757;SDS011;36732;47.980;11.652;2022-07-21T14:16:29;9.82;;;7.75;;
50757;SDS011;36732;47.980;11.652;2022-07-21T14:18:55;8.52;;;7.72;;
50757;SDS011;36732;47.980;11.652;2022-07-21T14:21:21;8.95;;;8.05;;
50757;SDS011;36732;47.980;11.652;2022-07-21T14:23:46;10.90;;;8.05;;
50757;SDS011;36732;47.980;11.652;2022-07-21T14:26:12;8.98;;;8.07;;
50757;SDS011;36732;47.980;11.652;2022-07-21T14:28:38;9.07;;;8.18;;
50757;SDS011;36732;47.980;11.652;2022-07-21T14:31:04;8.98;;;8.07;;
50757;SDS011;36732;47.980;11.652;2022-07-21T14:33:30;10.43;;;8.07;;
50757;SDS011;36732;47.980;11.652;2022-07-21T14:35:56;9.43;;;8.43;;
50757;SDS011;36732;47.980;11.652;2022-07-21T14:38:22;9.32;;;8.35;;
50757;SDS011;36732;47.980;11.652;2022-07-21T14:40:48;8.88;;;8.07;;
50757;SDS011;36732;47.980;11.652;2022-07-21T14:43:14;10.70;;;8.57;;
50757;SDS011;36732;47.980;11.652;2022-07-21T14:45:40;8.90;;;7.90;;
50757;SDS011;36732;47.980;11.652;2022-07-21T14:48:06;9.98;;;8.95;;
50757;SDS011;36732;47.980;11.652;2022-07-21T14:50:33;12.73;;;9.43;;
50757;SDS011;36732;47.980;11.652;2022-07-21T14:52:59;11.63;;;9.00;;
50757;SDS011;36732;47.980;11.652;2022-07-21T14:55:25;10.20;;;9.20;;
50757;SDS011;36732;47.980;11.652;2022-07-21T14:57:53;10.57;;;8.35;;
50757;SDS011;36732;47.980;11.652;2022-07-21T15:00:19;10.63;;;8.95;;
50757;SDS011;36732;47.980;11.652;2022-07-21T15:02:48;8.80;;;7.93;;
50757;SDS011;36732;47.980;11.652;2022-07-21T15:05:14;9.55;;;8.65;;
50757;SDS011;36732;47.980;11.652;2022-07-21T15:07:40;9.27;;;8.38;;
50757;SDS011;36732;47.980;11.652;2022-07-21T15:10:06;9.27;;;8.38;;
50757;SDS011;36732;47.980;11.652;2022-07-21T15:12:32;8.23;;;7.43;;
50757;SDS011;36732;47.980;11.652;2022-07-21T15:14:58;9.45;;;8.55;;
50757;SDS011;36732;47.980;11.652;2022-07-21T15:17:23;9.02;;;8.13;;
50757;SDS011;36732;47.980;11.652;2022-07-21T15:19:51;10.13;;;9.07;;
50757;SDS011;36732;47.980;11.652;2022-07-21T15:22:17;8.88;;;7.97;;
50757;SDS011;36732;47.980;11.652;2022-07-21T15:24:42;9.05;;;8.15;;